sensor_id;sensor_type;location;lat;lon;timestamp;P1;durP1;ratioP1;P2;durP2;ratioP2
75626;SDS011;67372;49.404;11.034;2023-02-01T00:00:11;6.22;;;2.65;;
75626;SDS011;67372;49.404;11.034;2023-02-01T00:02:38;6.90;;;3.35;;
75626;SDS011;67372;49.404;11.034;2023-02-01T00:05:05;6.40;;;3.15;;
75626;SDS011;67372;49.404;11.034;2023-02-01T00:07:32;7.05;;;3.70;;
75626;SDS011;67372;49.404;11.034;2023-02-01T00:09:58;6.47;;;3.70;;
75626;SDS011;67372;49.404;11.034;2023-02-01T00:12:24;6.18;;;3.08;;
75626;SDS011;67372;49.404;11.034;2023-02-01T00:14:51;8.05;;;4.00;;
75626;SDS011;67372;49.404;11.034;2023-02-01T00:17:17;7.20;;;3.10;;
75626;SDS011;67372;49.404;11.034;2023-02-01T00:19:43;6.40;;;2.97;;
75626;SDS011;67372;49.404;11.034;2023-02-01T00:22:10;5.75;;;3.38;;
75626;SDS011;67372;49.404;11.034;2023-02-01T00:24:36;5.95;;;3.25;;
75626;SDS011;67372;49.404;11.034;2023-02-01T00:27:02;6.55;;;3.78;;
75626;SDS011;67372;49.404;11.034;2023-02-01T00:29:29;5.53;;;3.08;;
75626;SDS011;67372;49.404;11.034;2023-02-01T00:31:55;5.93;;;3.22;;
75626;SDS011;67372;49.404;11.034;2023-02-01T00:34:21;5.40;;;3.00;;
75626;SDS011;67372;49.404;11.034;2023-02-01T00:36:48;4.90;;;3.38;;
75626;SDS011;67372;49.404;11.034;2023-02-01T00:39:14;5.22;;;3.33;;
75626;SDS011;67372;49.404;11.034;2023-02-01T00:41:41;6.35;;;3.20;;
75626;SDS011;67372;49.404;11.034;2023-02-01T00:44:07;6.47;;;3.30;;
75626;SDS011;67372;49.404;11.034;2023-02-01T00:46:34;7.15;;;3.50;;
75626;SDS011;67372;49.404;11.034;2023-02-01T00:49:00;6.25;;;3.35;;
75626;SDS011;67372;49.404;11.034;2023-02-01T00:51:27;6.15;;;3.08;;
75626;SDS011;67372;49.404;11.034;2023-02-01T00:53:55;6.53;;;3.88;;
75626;SDS011;67372;49.404;11.034;2023-02-01T00:56:22;5.72;;;3.15;;
75626;SDS011;67372;49.404;11.034;2023-02-01T00:58:48;5.55;;;3.25;;
75626;SDS011;67372;49.404;11.034;2023-02-01T01:01:18;6.43;;;3.40;;
75626;SDS011;67372;49.404;11.034;2023-02-01T01:03:50;5.30;;;3.65;;
75626;SDS011;67372;49.404;11.034;2023-02-01T01:06:28;6.97;;;3.95;;
75626;SDS011;67372;49.404;11.034;2023-02-01T01:08:57;6.00;;;3.17;;
75626;SDS011;67372;49.404;11.034;2023-02-01T01:11:26;6.93;;;3.47;;
75626;SDS011;67372;49.404;11.034;2023-02-01T01:13:55;7.80;;;3.70;;
75626;SDS011;67372;49.404;11.034;2023-02-01T01:16:23;7.20;;;3.80;;
75626;SDS011;67372;49.404;11.034;2023-02-01T01:18:51;8.13;;;4.30;;
75626;SDS011;67372;49.404;11.034;2023-02-01T01:21:18;6.60;;;3.50;;
75626;SDS011;67372;49.404;11.034;2023-02-01T01:23:45;7.28;;;3.13;;
75626;SDS011;67372;49.404;11.034;2023-02-01T01:26:17;7.95;;;3.60;;
75626;SDS011;67372;49.404;11.034;2023-02-01T01:28:45;6.50;;;3.58;;
75626;SDS011;67372;49.404;11.034;2023-02-01T01:31:12;7.32;;;3.90;;
75626;SDS011;67372;49.404;11.034;2023-02-01T01:33:41;7.53;;;3.67;;
75626;SDS011;67372;49.404;11.034;2023-02-01T01:36:07;5.63;;;3.50;;
75626;SDS011;67372;49.404;11.034;2023-02-01T01:38:34;7.70;;;3.47;;
75626;SDS011;67372;49.404;11.034;2023-02-01T01:41:01;7.10;;;3.42;;
75626;SDS011;67372;49.404;11.034;2023-02-01T01:43:44;4.68;;;3.13;;
75626;SDS011;67372;49.404;11.034;2023-02-01T01:46:16;6.25;;;3.08;;
75626;SDS011;67372;49.404;11.034;2023-02-01T01:48:44;6.13;;;2.85;;
75626;SDS011;67372;49.404;11.034;2023-02-01T01:51:14;6.03;;;3.15;;
75626;SDS011;67372;49.404;11.034;2023-02-01T01:53:48;4.72;;;2.72;;
75626;SDS011;67372;49.404;11.034;2023-02-01T01:56:22;5.55;;;2.85;;
75626;SDS011;67372;49.404;11.034;2023-02-01T01:58:48;4.43;;;2.83;;
75626;SDS011;67372;49.404;11.034;2023-02-01T02:01:15;4.63;;;2.58;;
75626;SDS011;67372;49.404;11.034;2023-02-01T02:03:42;5.63;;;2.78;;
75626;SDS011;67372;49.404;11.034;2023-02-01T02:06:15;2.83;;;1.95;;
75626;SDS011;67372;49.404;11.034;2023-02-01T02:08:42;4.95;;;3.03;;
75626;SDS011;67372;49.404;11.034;2023-02-01T02:11:09;5.47;;;2.75;;
75626;SDS011;67372;49.404;11.034;2023-02-01T02:13:42;5.20;;;2.47;;
75626;SDS011;67372;49.404;11.034;2023-02-01T02:16:20;4.47;;;2.60;;
75626;SDS011;67372;49.404;11.034;2023-02-01T02:19:06;5.40;;;2.75;;
75626;SDS011;67372;49.404;11.034;2023-02-01T02:27:21;6.65;;;2.67;;
75626;SDS011;67372;49.404;11.034;2023-02-01T02:35:38;5.40;;;3.30;;
75626;SDS011;67372;49.404;11.034;2023-02-01T02:38:17;5.80;;;3.10;;
75626;SDS011;67372;49.404;11.034;2023-02-01T02:41:10;6.00;;;3.28;;
75626;SDS011;67372;49.404;11.034;2023-02-01T02:43:44;7.50;;;3.53;;
75626;SDS011;67372;49.404;11.034;2023-02-01T02:46:21;8.50;;;3.70;;
75626;SDS011;67372;49.404;11.034;2023-02-01T02:48:52;6.28;;;3.95;;
75626;SDS011;67372;49.404;11.034;2023-02-01T02:54:16;9.85;;;4.40;;
75626;SDS011;67372;49.404;11.034;2023-02-01T02:56:46;7.88;;;4.20;;
75626;SDS011;67372;49.404;11.034;2023-02-01T02:59:15;8.73;;;4.10;;
75626;SDS011;67372;49.404;11.034;2023-02-01T03:01:45;6.30;;;3.20;;
75626;SDS011;67372;49.404;11.034;2023-02-01T03:04:11;5.60;;;3.72;;
75626;SDS011;67372;49.404;11.034;2023-02-01T03:06:39;6.80;;;3.60;;
75626;SDS011;67372;49.404;11.034;2023-02-01T03:09:08;6.63;;;3.63;;
75626;SDS011;67372;49.404;11.034;2023-02-01T03:11:39;7.07;;;3.60;;
75626;SDS011;67372;49.404;11.034;2023-02-01T03:14:11;6.78;;;3.80;;
75626;SDS011;67372;49.404;11.034;2023-02-01T03:16:42;6.68;;;3.45;;
75626;SDS011;67372;49.404;11.034;2023-02-01T03:22:00;7.97;;;3.47;;
75626;SDS011;67372;49.404;11.034;2023-02-01T03:24:38;7.35;;;3.55;;
75626;SDS011;67372;49.404;11.034;2023-02-01T03:27:30;8.48;;;3.95;;
75626;SDS011;67372;49.404;11.034;2023-02-01T03:30:17;8.13;;;3.38;;
75626;SDS011;67372;49.404;11.034;2023-02-01T03:32:47;8.48;;;3.95;;
75626;SDS011;67372;49.404;11.034;2023-02-01T03:35:15;8.30;;;3.67;;
75626;SDS011;67372;49.404;11.034;2023-02-01T03:37:42;9.32;;;4.55;;
75626;SDS011;67372;49.404;11.034;2023-02-01T03:40:09;8.30;;;4.60;;
75626;SDS011;67372;49.404;11.034;2023-02-01T03:42:43;7.10;;;4.47;;
75626;SDS011;67372;49.404;11.034;2023-02-01T03:45:18;7.47;;;4.00;;
75626;SDS011;67372;49.404;11.034;2023-02-01T03:47:47;7.68;;;3.88;;
75626;SDS011;67372;49.404;11.034;2023-02-01T03:50:17;7.57;;;3.95;;
75626;SDS011;67372;49.404;11.034;2023-02-01T03:52:50;8.00;;;4.28;;
75626;SDS011;67372;49.404;11.034;2023-02-01T03:55:22;9.77;;;4.25;;
75626;SDS011;67372;49.404;11.034;2023-02-01T04:00:35;6.93;;;4.15;;
75626;SDS011;67372;49.404;11.034;2023-02-01T04:03:02;7.93;;;4.00;;
75626;SDS011;67372;49.404;11.034;2023-02-01T04:05:30;6.45;;;3.03;;
75626;SDS011;67372;49.404;11.034;2023-02-01T04:07:57;10.52;;;4.25;;
75626;SDS011;67372;49.404;11.034;2023-02-01T04:10:24;8.50;;;4.05;;
75626;SDS011;67372;49.404;11.034;2023-02-01T04:12:51;8.68;;;3.83;;
75626;SDS011;67372;49.404;11.034;2023-02-01T04:15:17;7.55;;;3.75;;
75626;SDS011;67372;49.404;11.034;2023-02-01T04:17:44;9.52;;;4.82;;
75626;SDS011;67372;49.404;11.034;2023-02-01T04:20:10;8.75;;;4.22;;
75626;SDS011;67372;49.404;11.034;2023-02-01T04:22:37;7.35;;;3.63;;
75626;SDS011;67372;49.404;11.034;2023-02-01T04:25:03;5.95;;;3.13;;
75626;SDS011;67372;49.404;11.034;2023-02-01T04:27:30;6.25;;;3.90;;
75626;SDS011;67372;49.404;11.034;2023-02-01T04:29:56;6.22;;;4.22;;
75626;SDS011;67372;49.404;11.034;2023-02-01T04:32:23;7.10;;;3.72;;
75626;SDS011;67372;49.404;11.034;2023-02-01T04:34:50;8.02;;;3.47;;
75626;SDS011;67372;49.404;11.034;2023-02-01T04:37:16;6.65;;;3.58;;
75626;SDS011;67372;49.404;11.034;2023-02-01T04:39:42;7.95;;;4.30;;
75626;SDS011;67372;49.404;11.034;2023-02-01T04:42:09;6.10;;;3.60;;
75626;SDS011;67372;49.404;11.034;2023-02-01T04:44:35;6.60;;;3.63;;
75626;SDS011;67372;49.404;11.034;2023-02-01T04:47:01;7.10;;;3.92;;
75626;SDS011;67372;49.404;11.034;2023-02-01T04:49:27;6.35;;;3.88;;
75626;SDS011;67372;49.404;11.034;2023-02-01T04:51:54;7.93;;;4.50;;
75626;SDS011;67372;49.404;11.034;2023-02-01T04:54:20;7.97;;;3.83;;
75626;SDS011;67372;49.404;11.034;2023-02-01T04:56:46;4.80;;;3.00;;
75626;SDS011;67372;49.404;11.034;2023-02-01T04:59:13;7.85;;;3.90;;
75626;SDS011;67372;49.404;11.034;2023-02-01T05:01:39;6.90;;;3.97;;
75626;SDS011;67372;49.404;11.034;2023-02-01T05:04:06;9.77;;;3.90;;
75626;SDS011;67372;49.404;11.034;2023-02-01T05:06:32;7.72;;;4.00;;
75626;SDS011;67372;49.404;11.034;2023-02-01T05:08:59;7.85;;;4.20;;
75626;SDS011;67372;49.404;11.034;2023-02-01T05:11:25;6.22;;;3.22;;
75626;SDS011;67372;49.404;11.034;2023-02-01T05:13:51;8.02;;;4.32;;
75626;SDS011;67372;49.404;11.034;2023-02-01T05:16:18;6.93;;;4.35;;
75626;SDS011;67372;49.404;11.034;2023-02-01T05:18:44;7.68;;;3.78;;
75626;SDS011;67372;49.404;11.034;2023-02-01T05:21:11;7.60;;;3.63;;
75626;SDS011;67372;49.404;11.034;2023-02-01T05:23:37;8.50;;;3.80;;
75626;SDS011;67372;49.404;11.034;2023-02-01T05:26:03;6.68;;;3.75;;
75626;SDS011;67372;49.404;11.034;2023-02-01T05:28:30;7.32;;;3.83;;
75626;SDS011;67372;49.404;11.034;2023-02-01T05:30:56;7.90;;;3.97;;
75626;SDS011;67372;49.404;11.034;2023-02-01T05:33:23;8.95;;;3.90;;
75626;SDS011;67372;49.404;11.034;2023-02-01T05:35:49;8.57;;;3.78;;
75626;SDS011;67372;49.404;11.034;2023-02-01T05:38:15;11.93;;;5.95;;
75626;SDS011;67372;49.404;11.034;2023-02-01T05:40:42;9.25;;;5.07;;
75626;SDS011;67372;49.404;11.034;2023-02-01T05:43:08;7.53;;;4.35;;
75626;SDS011;67372;49.404;11.034;2023-02-01T05:45:35;7.15;;;3.58;;
75626;SDS011;67372;49.404;11.034;2023-02-01T05:48:01;8.57;;;4.00;;
75626;SDS011;67372;49.404;11.034;2023-02-01T05:50:27;7.10;;;3.83;;
75626;SDS011;67372;49.404;11.034;2023-02-01T05:52:54;7.30;;;3.80;;
75626;SDS011;67372;49.404;11.034;2023-02-01T05:55:20;8.18;;;4.63;;
75626;SDS011;67372;49.404;11.034;2023-02-01T05:57:46;8.20;;;4.90;;
75626;SDS011;67372;49.404;11.034;2023-02-01T06:00:13;8.48;;;3.95;;
75626;SDS011;67372;49.404;11.034;2023-02-01T06:02:39;8.55;;;4.85;;
75626;SDS011;67372;49.404;11.034;2023-02-01T06:05:06;8.63;;;5.32;;
75626;SDS011;67372;49.404;11.034;2023-02-01T06:07:32;7.00;;;3.38;;
75626;SDS011;67372;49.404;11.034;2023-02-01T06:09:59;8.90;;;4.00;;
75626;SDS011;67372;49.404;11.034;2023-02-01T06:12:25;7.63;;;3.38;;
75626;SDS011;67372;49.404;11.034;2023-02-01T06:14:51;6.65;;;3.70;;
75626;SDS011;67372;49.404;11.034;2023-02-01T06:17:18;6.70;;;3.90;;
75626;SDS011;67372;49.404;11.034;2023-02-01T06:19:44;6.30;;;3.38;;
75626;SDS011;67372;49.404;11.034;2023-02-01T06:22:10;6.10;;;3.22;;
75626;SDS011;67372;49.404;11.034;2023-02-01T06:24:37;4.97;;;3.17;;
75626;SDS011;67372;49.404;11.034;2023-02-01T06:27:03;6.80;;;3.33;;
75626;SDS011;67372;49.404;11.034;2023-02-01T06:29:29;6.15;;;2.80;;
75626;SDS011;67372;49.404;11.034;2023-02-01T06:31:56;5.10;;;2.72;;
75626;SDS011;67372;49.404;11.034;2023-02-01T06:34:22;5.53;;;2.75;;
75626;SDS011;67372;49.404;11.034;2023-02-01T06:36:48;4.50;;;2.58;;
75626;SDS011;67372;49.404;11.034;2023-02-01T06:39:15;4.03;;;2.33;;
75626;SDS011;67372;49.404;11.034;2023-02-01T06:41:42;5.63;;;2.60;;
75626;SDS011;67372;49.404;11.034;2023-02-01T06:44:11;5.03;;;2.53;;
75626;SDS011;67372;49.404;11.034;2023-02-01T06:46:38;5.50;;;2.63;;
75626;SDS011;67372;49.404;11.034;2023-02-01T06:49:04;3.97;;;2.20;;
75626;SDS011;67372;49.404;11.034;2023-02-01T06:51:30;4.40;;;2.45;;
75626;SDS011;67372;49.404;11.034;2023-02-01T06:53:57;3.13;;;1.75;;
75626;SDS011;67372;49.404;11.034;2023-02-01T06:56:24;3.67;;;1.63;;
75626;SDS011;67372;49.404;11.034;2023-02-01T07:01:18;4.30;;;1.75;;
75626;SDS011;67372;49.404;11.034;2023-02-01T07:03:49;4.10;;;1.80;;
75626;SDS011;67372;49.404;11.034;2023-02-01T07:06:16;3.17;;;1.48;;
75626;SDS011;67372;49.404;11.034;2023-02-01T07:08:43;3.10;;;1.85;;
75626;SDS011;67372;49.404;11.034;2023-02-01T07:11:10;3.35;;;1.38;;
75626;SDS011;67372;49.404;11.034;2023-02-01T07:13:38;3.00;;;1.83;;
75626;SDS011;67372;49.404;11.034;2023-02-01T07:16:06;3.97;;;2.05;;
75626;SDS011;67372;49.404;11.034;2023-02-01T07:18:36;4.18;;;2.03;;
75626;SDS011;67372;49.404;11.034;2023-02-01T07:21:03;3.50;;;2.33;;
75626;SDS011;67372;49.404;11.034;2023-02-01T07:23:29;3.90;;;2.50;;
75626;SDS011;67372;49.404;11.034;2023-02-01T07:25:56;4.60;;;2.13;;
75626;SDS011;67372;49.404;11.034;2023-02-01T07:28:29;5.45;;;2.38;;
75626;SDS011;67372;49.404;11.034;2023-02-01T07:31:06;6.05;;;2.33;;
75626;SDS011;67372;49.404;11.034;2023-02-01T07:33:34;4.68;;;2.17;;
75626;SDS011;67372;49.404;11.034;2023-02-01T07:36:04;3.85;;;2.42;;
75626;SDS011;67372;49.404;11.034;2023-02-01T07:38:32;3.58;;;2.30;;
75626;SDS011;67372;49.404;11.034;2023-02-01T07:40:59;4.20;;;2.42;;
75626;SDS011;67372;49.404;11.034;2023-02-01T07:43:27;4.82;;;2.60;;
75626;SDS011;67372;49.404;11.034;2023-02-01T07:45:54;5.25;;;2.50;;
75626;SDS011;67372;49.404;11.034;2023-02-01T07:48:22;3.95;;;2.05;;
75626;SDS011;67372;49.404;11.034;2023-02-01T07:50:59;2.95;;;1.95;;
75626;SDS011;67372;49.404;11.034;2023-02-01T07:53:26;2.70;;;1.50;;
75626;SDS011;67372;49.404;11.034;2023-02-01T07:55:53;4.10;;;1.92;;
75626;SDS011;67372;49.404;11.034;2023-02-01T07:58:19;5.18;;;2.10;;
75626;SDS011;67372;49.404;11.034;2023-02-01T08:00:45;3.30;;;1.60;;
75626;SDS011;67372;49.404;11.034;2023-02-01T08:03:12;3.60;;;1.67;;
75626;SDS011;67372;49.404;11.034;2023-02-01T08:05:38;2.88;;;1.63;;
75626;SDS011;67372;49.404;11.034;2023-02-01T08:08:04;3.42;;;1.60;;
75626;SDS011;67372;49.404;11.034;2023-02-01T08:10:31;2.25;;;1.80;;
75626;SDS011;67372;49.404;11.034;2023-02-01T08:12:58;5.70;;;2.00;;
75626;SDS011;67372;49.404;11.034;2023-02-01T08:15:25;2.92;;;1.48;;
75626;SDS011;67372;49.404;11.034;2023-02-01T08:20:19;2.95;;;1.38;;
75626;SDS011;67372;49.404;11.034;2023-02-01T08:22:46;4.35;;;1.63;;
75626;SDS011;67372;49.404;11.034;2023-02-01T08:25:12;3.53;;;1.65;;
75626;SDS011;67372;49.404;11.034;2023-02-01T08:27:38;4.90;;;1.98;;
75626;SDS011;67372;49.404;11.034;2023-02-01T08:30:05;4.32;;;1.70;;
75626;SDS011;67372;49.404;11.034;2023-02-01T08:32:32;3.25;;;1.65;;
75626;SDS011;67372;49.404;11.034;2023-02-01T08:34:59;4.47;;;1.48;;
75626;SDS011;67372;49.404;11.034;2023-02-01T08:37:25;3.65;;;1.40;;
75626;SDS011;67372;49.404;11.034;2023-02-01T08:39:52;2.65;;;1.83;;
75626;SDS011;67372;49.404;11.034;2023-02-01T08:42:18;1.95;;;1.50;;
75626;SDS011;67372;49.404;11.034;2023-02-01T08:44:44;4.15;;;1.73;;
75626;SDS011;67372;49.404;11.034;2023-02-01T08:47:11;2.70;;;1.27;;
75626;SDS011;67372;49.404;11.034;2023-02-01T08:49:37;3.20;;;1.73;;
75626;SDS011;67372;49.404;11.034;2023-02-01T08:52:03;2.75;;;1.50;;
75626;SDS011;67372;49.404;11.034;2023-02-01T08:54:40;5.47;;;2.00;;
75626;SDS011;67372;49.404;11.034;2023-02-01T08:57:07;4.63;;;1.60;;
75626;SDS011;67372;49.404;11.034;2023-02-01T08:59:33;4.75;;;1.98;;
75626;SDS011;67372;49.404;11.034;2023-02-01T09:01:59;2.92;;;2.00;;
75626;SDS011;67372;49.404;11.034;2023-02-01T09:04:25;3.45;;;2.30;;
75626;SDS011;67372;49.404;11.034;2023-02-01T09:06:52;2.78;;;2.10;;
75626;SDS011;67372;49.404;11.034;2023-02-01T09:09:18;5.20;;;1.95;;
75626;SDS011;67372;49.404;11.034;2023-02-01T09:11:44;4.50;;;2.42;;
75626;SDS011;67372;49.404;11.034;2023-02-01T09:14:11;6.78;;;2.30;;
75626;SDS011;67372;49.404;11.034;2023-02-01T09:16:37;5.00;;;2.20;;
75626;SDS011;67372;49.404;11.034;2023-02-01T09:19:03;6.28;;;2.55;;
75626;SDS011;67372;49.404;11.034;2023-02-01T09:21:50;4.93;;;2.55;;
75626;SDS011;67372;49.404;11.034;2023-02-01T09:24:16;5.57;;;2.65;;
75626;SDS011;67372;49.404;11.034;2023-02-01T09:26:43;5.53;;;3.05;;
75626;SDS011;67372;49.404;11.034;2023-02-01T09:29:09;4.88;;;3.53;;
75626;SDS011;67372;49.404;11.034;2023-02-01T09:31:36;5.20;;;3.00;;
75626;SDS011;67372;49.404;11.034;2023-02-01T09:34:05;5.97;;;2.70;;
75626;SDS011;67372;49.404;11.034;2023-02-01T09:36:32;8.55;;;2.22;;
75626;SDS011;67372;49.404;11.034;2023-02-01T09:39:00;6.38;;;1.95;;
75626;SDS011;67372;49.404;11.034;2023-02-01T09:41:39;2.60;;;1.60;;
75626;SDS011;67372;49.404;11.034;2023-02-01T09:44:21;3.58;;;1.58;;
75626;SDS011;67372;49.404;11.034;2023-02-01T09:47:18;2.95;;;0.93;;
75626;SDS011;67372;49.404;11.034;2023-02-01T09:49:59;4.20;;;0.90;;
75626;SDS011;67372;49.404;11.034;2023-02-01T09:52:53;1.92;;;1.10;;
75626;SDS011;67372;49.404;11.034;2023-02-01T09:58:06;5.30;;;1.13;;
75626;SDS011;67372;49.404;11.034;2023-02-01T10:00:38;4.25;;;1.70;;
75626;SDS011;67372;49.404;11.034;2023-02-01T10:03:11;5.13;;;2.08;;
75626;SDS011;67372;49.404;11.034;2023-02-01T10:05:49;7.93;;;2.63;;
75626;SDS011;67372;49.404;11.034;2023-02-01T10:10:49;5.10;;;2.25;;
75626;SDS011;67372;49.404;11.034;2023-02-01T10:24:28;4.90;;;2.05;;
75626;SDS011;67372;49.404;11.034;2023-02-01T10:29:41;7.28;;;2.72;;
75626;SDS011;67372;49.404;11.034;2023-02-01T10:32:42;6.03;;;2.97;;
75626;SDS011;67372;49.404;11.034;2023-02-01T10:35:04;5.18;;;2.72;;
75626;SDS011;67372;49.404;11.034;2023-02-01T10:37:37;4.68;;;2.50;;
75626;SDS011;67372;49.404;11.034;2023-02-01T10:40:24;6.70;;;2.22;;
75626;SDS011;67372;49.404;11.034;2023-02-01T10:42:53;7.47;;;2.92;;
75626;SDS011;67372;49.404;11.034;2023-02-01T10:45:24;5.85;;;2.22;;
75626;SDS011;67372;49.404;11.034;2023-02-01T10:47:53;4.38;;;2.08;;
75626;SDS011;67372;49.404;11.034;2023-02-01T10:50:29;9.07;;;2.97;;
75626;SDS011;67372;49.404;11.034;2023-02-01T10:53:03;4.63;;;2.33;;
75626;SDS011;67372;49.404;11.034;2023-02-01T10:55:38;6.78;;;2.17;;
75626;SDS011;67372;49.404;11.034;2023-02-01T10:58:10;8.43;;;2.65;;
75626;SDS011;67372;49.404;11.034;2023-02-01T11:00:45;5.35;;;2.17;;
75626;SDS011;67372;49.404;11.034;2023-02-01T11:06:13;4.30;;;1.95;;
75626;SDS011;67372;49.404;11.034;2023-02-01T11:08:49;3.97;;;2.33;;
75626;SDS011;67372;49.404;11.034;2023-02-01T11:11:18;3.70;;;2.10;;
75626;SDS011;67372;49.404;11.034;2023-02-01T11:13:51;6.45;;;2.00;;
75626;SDS011;67372;49.404;11.034;2023-02-01T11:16:28;5.45;;;1.38;;
75626;SDS011;67372;49.404;11.034;2023-02-01T11:18:57;5.10;;;1.58;;
75626;SDS011;67372;49.404;11.034;2023-02-01T11:21:24;3.92;;;1.48;;
75626;SDS011;67372;49.404;11.034;2023-02-01T11:23:51;2.92;;;1.50;;
75626;SDS011;67372;49.404;11.034;2023-02-01T11:29:32;4.18;;;1.60;;
75626;SDS011;67372;49.404;11.034;2023-02-01T11:31:40;4.43;;;1.75;;
75626;SDS011;67372;49.404;11.034;2023-02-01T11:34:17;3.45;;;1.80;;
75626;SDS011;67372;49.404;11.034;2023-02-01T11:36:46;4.30;;;1.55;;
75626;SDS011;67372;49.404;11.034;2023-02-01T11:39:20;4.97;;;1.98;;
75626;SDS011;67372;49.404;11.034;2023-02-01T11:41:55;4.70;;;1.35;;
75626;SDS011;67372;49.404;11.034;2023-02-01T11:44:22;5.03;;;1.42;;
75626;SDS011;67372;49.404;11.034;2023-02-01T11:46:57;9.32;;;1.95;;
75626;SDS011;67372;49.404;11.034;2023-02-01T11:49:44;5.72;;;1.67;;
75626;SDS011;67372;49.404;11.034;2023-02-01T11:52:33;6.05;;;2.22;;
75626;SDS011;67372;49.404;11.034;2023-02-01T11:55:11;5.68;;;1.70;;
75626;SDS011;67372;49.404;11.034;2023-02-01T11:57:42;8.52;;;2.40;;
75626;SDS011;67372;49.404;11.034;2023-02-01T12:00:34;4.72;;;1.88;;
75626;SDS011;67372;49.404;11.034;2023-02-01T12:03:20;5.00;;;2.03;;
75626;SDS011;67372;49.404;11.034;2023-02-01T12:05:59;7.95;;;2.15;;
75626;SDS011;67372;49.404;11.034;2023-02-01T12:08:48;3.90;;;2.22;;
75626;SDS011;67372;49.404;11.034;2023-02-01T12:11:37;2.67;;;1.30;;
75626;SDS011;67372;49.404;11.034;2023-02-01T12:17:15;4.78;;;1.77;;
75626;SDS011;67372;49.404;11.034;2023-02-01T12:20:08;5.30;;;1.48;;
75626;SDS011;67372;49.404;11.034;2023-02-01T12:26:08;5.85;;;1.60;;
75626;SDS011;67372;49.404;11.034;2023-02-01T12:31:49;4.03;;;1.67;;
75626;SDS011;67372;49.404;11.034;2023-02-01T12:34:23;2.97;;;1.50;;
75626;SDS011;67372;49.404;11.034;2023-02-01T12:40:10;3.40;;;1.50;;
75626;SDS011;67372;49.404;11.034;2023-02-01T12:42:46;3.17;;;1.58;;
75626;SDS011;67372;49.404;11.034;2023-02-01T12:45:31;9.88;;;2.20;;
75626;SDS011;67372;49.404;11.034;2023-02-01T12:50:53;4.03;;;1.45;;
75626;SDS011;67372;49.404;11.034;2023-02-01T12:53:23;6.32;;;1.77;;
75626;SDS011;67372;49.404;11.034;2023-02-01T12:55:57;4.00;;;1.25;;
75626;SDS011;67372;49.404;11.034;2023-02-01T12:58:32;6.70;;;2.05;;
75626;SDS011;67372;49.404;11.034;2023-02-01T13:01:09;3.78;;;1.70;;
75626;SDS011;67372;49.404;11.034;2023-02-01T13:03:44;2.20;;;1.60;;
75626;SDS011;67372;49.404;11.034;2023-02-01T13:06:20;4.88;;;2.33;;
75626;SDS011;67372;49.404;11.034;2023-02-01T13:09:01;5.78;;;2.40;;
75626;SDS011;67372;49.404;11.034;2023-02-01T13:11:48;4.65;;;2.10;;
75626;SDS011;67372;49.404;11.034;2023-02-01T13:16:55;6.70;;;2.70;;
75626;SDS011;67372;49.404;11.034;2023-02-01T13:19:47;5.88;;;1.75;;
75626;SDS011;67372;49.404;11.034;2023-02-01T13:22:25;5.57;;;2.00;;
75626;SDS011;67372;49.404;11.034;2023-02-01T13:28:09;3.97;;;1.75;;
75626;SDS011;67372;49.404;11.034;2023-02-01T13:30:47;3.72;;;1.73;;
75626;SDS011;67372;49.404;11.034;2023-02-01T13:33:54;4.57;;;1.73;;
75626;SDS011;67372;49.404;11.034;2023-02-01T13:36:45;5.03;;;1.70;;
75626;SDS011;67372;49.404;11.034;2023-02-01T13:39:54;4.22;;;1.52;;
75626;SDS011;67372;49.404;11.034;2023-02-01T13:42:35;3.97;;;1.52;;
75626;SDS011;67372;49.404;11.034;2023-02-01T13:45:24;4.95;;;2.05;;
75626;SDS011;67372;49.404;11.034;2023-02-01T13:47:57;7.95;;;2.42;;
75626;SDS011;67372;49.404;11.034;2023-02-01T13:50:27;5.95;;;1.83;;
75626;SDS011;67372;49.404;11.034;2023-02-01T13:53:01;4.03;;;1.35;;
75626;SDS011;67372;49.404;11.034;2023-02-01T13:55:38;4.55;;;1.65;;
75626;SDS011;67372;49.404;11.034;2023-02-01T14:00:45;5.88;;;1.83;;
75626;SDS011;67372;49.404;11.034;2023-02-01T14:06:03;4.63;;;1.77;;
75626;SDS011;67372;49.404;11.034;2023-02-01T14:08:41;5.60;;;2.05;;
75626;SDS011;67372;49.404;11.034;2023-02-01T14:11:30;6.85;;;1.80;;
75626;SDS011;67372;49.404;11.034;2023-02-01T14:19:31;5.45;;;1.60;;
75626;SDS011;67372;49.404;11.034;2023-02-01T14:21:59;4.97;;;1.83;;
75626;SDS011;67372;49.404;11.034;2023-02-01T14:24:52;4.95;;;2.22;;
75626;SDS011;67372;49.404;11.034;2023-02-01T14:29:58;6.82;;;2.83;;
75626;SDS011;67372;49.404;11.034;2023-02-01T14:32:36;5.75;;;2.17;;
75626;SDS011;67372;49.404;11.034;2023-02-01T14:35:06;3.17;;;1.60;;
75626;SDS011;67372;49.404;11.034;2023-02-01T14:37:42;3.67;;;1.58;;
75626;SDS011;67372;49.404;11.034;2023-02-01T14:47:44;3.70;;;2.15;;
75626;SDS011;67372;49.404;11.034;2023-02-01T14:50:14;4.93;;;2.40;;
75626;SDS011;67372;49.404;11.034;2023-02-01T14:52:44;7.18;;;1.92;;
75626;SDS011;67372;49.404;11.034;2023-02-01T14:55:27;5.63;;;2.15;;
75626;SDS011;67372;49.404;11.034;2023-02-01T14:57:55;4.68;;;1.77;;
75626;SDS011;67372;49.404;11.034;2023-02-01T15:00:25;5.50;;;2.22;;
75626;SDS011;67372;49.404;11.034;2023-02-01T15:02:55;6.43;;;2.13;;
75626;SDS011;67372;49.404;11.034;2023-02-01T15:05:41;5.35;;;2.05;;
75626;SDS011;67372;49.404;11.034;2023-02-01T15:08:16;6.43;;;2.10;;
75626;SDS011;67372;49.404;11.034;2023-02-01T15:10:46;5.78;;;2.03;;
75626;SDS011;67372;49.404;11.034;2023-02-01T15:13:23;6.00;;;2.38;;
75626;SDS011;67372;49.404;11.034;2023-02-01T15:18:39;8.50;;;2.10;;
75626;SDS011;67372;49.404;11.034;2023-02-01T15:24:19;3.88;;;1.70;;
75626;SDS011;67372;49.404;11.034;2023-02-01T15:26:47;5.68;;;1.80;;
75626;SDS011;67372;49.404;11.034;2023-02-01T15:29:15;7.43;;;1.95;;
75626;SDS011;67372;49.404;11.034;2023-02-01T15:31:43;7.18;;;1.88;;
75626;SDS011;67372;49.404;11.034;2023-02-01T15:34:12;6.53;;;1.98;;
75626;SDS011;67372;49.404;11.034;2023-02-01T15:36:39;6.35;;;1.90;;
75626;SDS011;67372;49.404;11.034;2023-02-01T15:39:24;5.63;;;1.60;;
75626;SDS011;67372;49.404;11.034;2023-02-01T15:42:12;4.40;;;2.00;;
75626;SDS011;67372;49.404;11.034;2023-02-01T15:47:16;6.68;;;1.90;;
75626;SDS011;67372;49.404;11.034;2023-02-01T15:49:45;3.42;;;1.23;;
75626;SDS011;67372;49.404;11.034;2023-02-01T15:52:21;6.13;;;1.42;;
75626;SDS011;67372;49.404;11.034;2023-02-01T15:55:02;5.25;;;1.63;;
75626;SDS011;67372;49.404;11.034;2023-02-01T15:57:35;4.40;;;1.33;;
75626;SDS011;67372;49.404;11.034;2023-02-01T16:00:07;3.63;;;1.25;;
75626;SDS011;67372;49.404;11.034;2023-02-01T16:05:39;9.23;;;2.20;;
75626;SDS011;67372;49.404;11.034;2023-02-01T16:08:10;5.88;;;1.20;;
75626;SDS011;67372;49.404;11.034;2023-02-01T16:10:43;3.03;;;1.20;;
75626;SDS011;67372;49.404;11.034;2023-02-01T16:13:11;6.38;;;1.80;;
75626;SDS011;67372;49.404;11.034;2023-02-01T16:15:38;6.90;;;1.80;;
75626;SDS011;67372;49.404;11.034;2023-02-01T16:18:05;2.38;;;1.13;;
75626;SDS011;67372;49.404;11.034;2023-02-01T16:22:58;2.28;;;1.33;;
75626;SDS011;67372;49.404;11.034;2023-02-01T16:25:25;3.15;;;1.02;;
75626;SDS011;67372;49.404;11.034;2023-02-01T16:27:51;4.32;;;1.30;;
75626;SDS011;67372;49.404;11.034;2023-02-01T16:30:18;5.88;;;1.67;;
75626;SDS011;67372;49.404;11.034;2023-02-01T16:32:44;4.57;;;1.73;;
75626;SDS011;67372;49.404;11.034;2023-02-01T16:35:13;4.25;;;1.65;;
75626;SDS011;67372;49.404;11.034;2023-02-01T16:37:48;4.97;;;1.50;;
75626;SDS011;67372;49.404;11.034;2023-02-01T16:40:14;4.82;;;1.40;;